sensor_id;sensor_type;location;lat;lon;timestamp;P1;durP1;ratioP1;P2;durP2;ratioP2
50443;SDS011;36370;52.216;21.142;2022-07-23T00:03:07;22.77;;;15.52;;
50443;SDS011;36370;52.216;21.142;2022-07-23T00:07:09;22.13;;;14.77;;
50443;SDS011;36370;52.216;21.142;2022-07-23T00:11:12;18.25;;;14.23;;
50443;SDS011;36370;52.216;21.142;2022-07-23T00:15:15;19.20;;;14.88;;
50443;SDS011;36370;52.216;21.142;2022-07-23T00:19:17;17.38;;;13.73;;
50443;SDS011;36370;52.216;21.142;2022-07-23T00:23:19;22.60;;;15.63;;
50443;SDS011;36370;52.216;21.142;2022-07-23T00:27:22;21.65;;;15.50;;
50443;SDS011;36370;52.216;21.142;2022-07-23T00:31:24;18.58;;;14.98;;
50443;SDS011;36370;52.216;21.142;2022-07-23T00:35:28;20.58;;;15.65;;
50443;SDS011;36370;52.216;21.142;2022-07-23T00:39:33;30.45;;;17.05;;
50443;SDS011;36370;52.216;21.142;2022-07-23T00:43:36;21.48;;;14.88;;
50443;SDS011;36370;52.216;21.142;2022-07-23T00:47:38;22.90;;;15.32;;
50443;SDS011;36370;52.216;21.142;2022-07-23T00:51:41;22.85;;;15.63;;
50443;SDS011;36370;52.216;21.142;2022-07-23T00:55:44;19.58;;;15.10;;
50443;SDS011;36370;52.216;21.142;2022-07-23T00:59:46;19.92;;;16.30;;
50443;SDS011;36370;52.216;21.142;2022-07-23T01:03:48;24.20;;;16.50;;
50443;SDS011;36370;52.216;21.142;2022-07-23T01:07:51;20.98;;;15.48;;
50443;SDS011;36370;52.216;21.142;2022-07-23T01:11:57;21.60;;;15.65;;
50443;SDS011;36370;52.216;21.142;2022-07-23T01:16:01;23.20;;;16.35;;
50443;SDS011;36370;52.216;21.142;2022-07-23T01:20:03;17.63;;;15.60;;
50443;SDS011;36370;52.216;21.142;2022-07-23T01:24:10;21.48;;;16.63;;
50443;SDS011;36370;52.216;21.142;2022-07-23T01:28:21;20.60;;;16.30;;
50443;SDS011;36370;52.216;21.142;2022-07-23T01:32:24;22.42;;;16.90;;
50443;SDS011;36370;52.216;21.142;2022-07-23T01:36:26;21.33;;;16.90;;
50443;SDS011;36370;52.216;21.142;2022-07-23T01:40:31;19.38;;;14.93;;
50443;SDS011;36370;52.216;21.142;2022-07-23T01:44:34;18.80;;;16.15;;
50443;SDS011;36370;52.216;21.142;2022-07-23T01:48:38;25.17;;;17.58;;
50443;SDS011;36370;52.216;21.142;2022-07-23T01:53:10;20.42;;;16.98;;
50443;SDS011;36370;52.216;21.142;2022-07-23T01:57:12;21.00;;;17.63;;
50443;SDS011;36370;52.216;21.142;2022-07-23T02:01:14;20.35;;;16.92;;
50443;SDS011;36370;52.216;21.142;2022-07-23T02:05:17;20.25;;;16.80;;
50443;SDS011;36370;52.216;21.142;2022-07-23T02:09:19;23.00;;;17.63;;
50443;SDS011;36370;52.216;21.142;2022-07-23T02:13:22;22.23;;;17.70;;
50443;SDS011;36370;52.216;21.142;2022-07-23T02:17:24;19.00;;;16.05;;
50443;SDS011;36370;52.216;21.142;2022-07-23T02:21:27;19.70;;;16.15;;
50443;SDS011;36370;52.216;21.142;2022-07-23T02:25:29;20.83;;;16.50;;
50443;SDS011;36370;52.216;21.142;2022-07-23T02:29:35;20.23;;;17.77;;
50443;SDS011;36370;52.216;21.142;2022-07-23T02:33:38;24.83;;;18.52;;
50443;SDS011;36370;52.216;21.142;2022-07-23T02:37:41;24.40;;;18.92;;
50443;SDS011;36370;52.216;21.142;2022-07-23T02:41:43;21.75;;;17.63;;
50443;SDS011;36370;52.216;21.142;2022-07-23T02:45:45;22.90;;;17.52;;
50443;SDS011;36370;52.216;21.142;2022-07-23T02:49:47;26.50;;;17.95;;
50443;SDS011;36370;52.216;21.142;2022-07-23T02:53:50;23.80;;;18.30;;
50443;SDS011;36370;52.216;21.142;2022-07-23T02:57:52;21.75;;;18.63;;
50443;SDS011;36370;52.216;21.142;2022-07-23T03:01:54;18.52;;;16.30;;
50443;SDS011;36370;52.216;21.142;2022-07-23T03:05:56;24.17;;;18.52;;
50443;SDS011;36370;52.216;21.142;2022-07-23T03:09:59;19.75;;;16.85;;
50443;SDS011;36370;52.216;21.142;2022-07-23T03:14:01;21.58;;;17.88;;
50443;SDS011;36370;52.216;21.142;2022-07-23T03:18:04;18.30;;;16.33;;
50443;SDS011;36370;52.216;21.142;2022-07-23T03:22:06;20.27;;;16.25;;
50443;SDS011;36370;52.216;21.142;2022-07-23T03:26:09;21.02;;;16.73;;
50443;SDS011;36370;52.216;21.142;2022-07-23T03:30:12;23.27;;;17.48;;
50443;SDS011;36370;52.216;21.142;2022-07-23T03:34:14;20.30;;;16.67;;
50443;SDS011;36370;52.216;21.142;2022-07-23T03:38:17;21.55;;;16.55;;
50443;SDS011;36370;52.216;21.142;2022-07-23T03:42:20;18.05;;;16.00;;
50443;SDS011;36370;52.216;21.142;2022-07-23T03:46:23;19.27;;;16.02;;
50443;SDS011;36370;52.216;21.142;2022-07-23T03:50:25;20.35;;;15.38;;
50443;SDS011;36370;52.216;21.142;2022-07-23T03:54:28;18.58;;;16.05;;
50443;SDS011;36370;52.216;21.142;2022-07-23T03:58:30;19.17;;;15.30;;
50443;SDS011;36370;52.216;21.142;2022-07-23T04:02:32;21.80;;;18.92;;
50443;SDS011;36370;52.216;21.142;2022-07-23T04:06:35;18.75;;;15.73;;
50443;SDS011;36370;52.216;21.142;2022-07-23T04:10:39;18.92;;;14.75;;
50443;SDS011;36370;52.216;21.142;2022-07-23T04:14:43;22.65;;;15.82;;
50443;SDS011;36370;52.216;21.142;2022-07-23T04:18:45;25.42;;;19.58;;
50443;SDS011;36370;52.216;21.142;2022-07-23T04:22:51;18.33;;;15.52;;
50443;SDS011;36370;52.216;21.142;2022-07-23T04:26:54;20.08;;;16.25;;
50443;SDS011;36370;52.216;21.142;2022-07-23T04:30:57;19.05;;;15.48;;
50443;SDS011;36370;52.216;21.142;2022-07-23T04:35:00;23.88;;;18.60;;
50443;SDS011;36370;52.216;21.142;2022-07-23T04:39:03;20.20;;;15.57;;
50443;SDS011;36370;52.216;21.142;2022-07-23T04:43:06;17.67;;;14.57;;
50443;SDS011;36370;52.216;21.142;2022-07-23T04:47:13;22.58;;;15.68;;
50443;SDS011;36370;52.216;21.142;2022-07-23T04:51:19;18.92;;;15.43;;
50443;SDS011;36370;52.216;21.142;2022-07-23T04:55:22;17.08;;;13.65;;
50443;SDS011;36370;52.216;21.142;2022-07-23T04:59:24;22.70;;;15.48;;
50443;SDS011;36370;52.216;21.142;2022-07-23T05:03:32;29.58;;;17.67;;
50443;SDS011;36370;52.216;21.142;2022-07-23T05:07:34;22.20;;;14.27;;
50443;SDS011;36370;52.216;21.142;2022-07-23T05:11:36;23.60;;;13.98;;
50443;SDS011;36370;52.216;21.142;2022-07-23T05:15:39;22.70;;;15.45;;
50443;SDS011;36370;52.216;21.142;2022-07-23T05:19:42;23.25;;;15.23;;
50443;SDS011;36370;52.216;21.142;2022-07-23T05:23:44;23.73;;;14.77;;
50443;SDS011;36370;52.216;21.142;2022-07-23T05:27:46;18.42;;;14.88;;
50443;SDS011;36370;52.216;21.142;2022-07-23T05:31:48;18.00;;;14.60;;
50443;SDS011;36370;52.216;21.142;2022-07-23T05:35:51;17.35;;;13.82;;
50443;SDS011;36370;52.216;21.142;2022-07-23T05:40:03;19.40;;;13.00;;
50443;SDS011;36370;52.216;21.142;2022-07-23T05:44:08;16.52;;;12.90;;
50443;SDS011;36370;52.216;21.142;2022-07-23T05:48:13;18.80;;;13.15;;
50443;SDS011;36370;52.216;21.142;2022-07-23T05:52:26;20.15;;;11.93;;
50443;SDS011;36370;52.216;21.142;2022-07-23T05:56:50;16.80;;;11.45;;
50443;SDS011;36370;52.216;21.142;2022-07-23T06:00:52;23.45;;;13.10;;
50443;SDS011;36370;52.216;21.142;2022-07-23T06:04:54;18.10;;;12.73;;
50443;SDS011;36370;52.216;21.142;2022-07-23T06:09:02;20.20;;;12.38;;
50443;SDS011;36370;52.216;21.142;2022-07-23T06:13:05;14.98;;;10.82;;
50443;SDS011;36370;52.216;21.142;2022-07-23T06:17:08;20.23;;;11.70;;
50443;SDS011;36370;52.216;21.142;2022-07-23T06:21:10;16.02;;;10.85;;
50443;SDS011;36370;52.216;21.142;2022-07-23T06:25:33;14.68;;;10.27;;
50443;SDS011;36370;52.216;21.142;2022-07-23T06:29:35;14.60;;;11.13;;
50443;SDS011;36370;52.216;21.142;2022-07-23T06:33:37;13.63;;;10.07;;
50443;SDS011;36370;52.216;21.142;2022-07-23T06:37:39;13.43;;;10.23;;
50443;SDS011;36370;52.216;21.142;2022-07-23T06:41:41;12.40;;;10.10;;
50443;SDS011;36370;52.216;21.142;2022-07-23T06:45:51;16.50;;;11.07;;
50443;SDS011;36370;52.216;21.142;2022-07-23T06:49:53;17.38;;;9.43;;
50443;SDS011;36370;52.216;21.142;2022-07-23T06:53:58;18.45;;;10.07;;
50443;SDS011;36370;52.216;21.142;2022-07-23T06:58:01;14.52;;;9.80;;
50443;SDS011;36370;52.216;21.142;2022-07-23T07:02:03;12.38;;;8.80;;
50443;SDS011;36370;52.216;21.142;2022-07-23T07:06:05;13.45;;;8.63;;
50443;SDS011;36370;52.216;21.142;2022-07-23T07:10:08;17.77;;;8.88;;
50443;SDS011;36370;52.216;21.142;2022-07-23T07:14:16;13.70;;;8.93;;
50443;SDS011;36370;52.216;21.142;2022-07-23T07:18:18;11.90;;;9.32;;
50443;SDS011;36370;52.216;21.142;2022-07-23T07:22:21;12.63;;;8.70;;
50443;SDS011;36370;52.216;21.142;2022-07-23T07:26:23;10.98;;;9.38;;
50443;SDS011;36370;52.216;21.142;2022-07-23T07:30:25;18.10;;;10.20;;
50443;SDS011;36370;52.216;21.142;2022-07-23T07:34:34;14.77;;;8.77;;
50443;SDS011;36370;52.216;21.142;2022-07-23T07:38:37;19.30;;;9.93;;
50443;SDS011;36370;52.216;21.142;2022-07-23T07:42:49;9.65;;;8.35;;
50443;SDS011;36370;52.216;21.142;2022-07-23T07:46:53;9.90;;;8.00;;
50443;SDS011;36370;52.216;21.142;2022-07-23T07:50:55;11.00;;;8.38;;
50443;SDS011;36370;52.216;21.142;2022-07-23T07:54:58;12.50;;;8.60;;
50443;SDS011;36370;52.216;21.142;2022-07-23T07:59:01;10.68;;;8.30;;
50443;SDS011;36370;52.216;21.142;2022-07-23T08:03:05;12.48;;;7.57;;
50443;SDS011;36370;52.216;21.142;2022-07-23T08:07:07;11.70;;;7.60;;
50443;SDS011;36370;52.216;21.142;2022-07-23T08:11:09;14.55;;;7.90;;
50443;SDS011;36370;52.216;21.142;2022-07-23T08:15:12;10.13;;;7.65;;
50443;SDS011;36370;52.216;21.142;2022-07-23T08:19:17;7.18;;;6.35;;
50443;SDS011;36370;52.216;21.142;2022-07-23T08:23:19;8.40;;;7.20;;
50443;SDS011;36370;52.216;21.142;2022-07-23T08:27:21;12.27;;;6.57;;
50443;SDS011;36370;52.216;21.142;2022-07-23T08:31:23;10.63;;;7.78;;
50443;SDS011;36370;52.216;21.142;2022-07-23T08:35:27;9.77;;;7.60;;
50443;SDS011;36370;52.216;21.142;2022-07-23T08:39:33;10.67;;;7.83;;
50443;SDS011;36370;52.216;21.142;2022-07-23T08:43:35;23.75;;;7.97;;
50443;SDS011;36370;52.216;21.142;2022-07-23T08:47:37;13.40;;;7.53;;
50443;SDS011;36370;52.216;21.142;2022-07-23T08:51:42;11.00;;;8.10;;
50443;SDS011;36370;52.216;21.142;2022-07-23T08:55:44;9.82;;;7.82;;
50443;SDS011;36370;52.216;21.142;2022-07-23T08:59:51;11.20;;;7.63;;
50443;SDS011;36370;52.216;21.142;2022-07-23T09:03:53;13.95;;;7.38;;
50443;SDS011;36370;52.216;21.142;2022-07-23T09:12:18;12.52;;;7.70;;
50443;SDS011;36370;52.216;21.142;2022-07-23T09:16:28;10.40;;;7.03;;
50443;SDS011;36370;52.216;21.142;2022-07-23T09:20:32;7.93;;;6.53;;
50443;SDS011;36370;52.216;21.142;2022-07-23T09:24:36;8.77;;;6.15;;
50443;SDS011;36370;52.216;21.142;2022-07-23T09:28:47;6.55;;;5.57;;
50443;SDS011;36370;52.216;21.142;2022-07-23T09:33:12;8.40;;;6.30;;
50443;SDS011;36370;52.216;21.142;2022-07-23T09:37:22;10.55;;;6.40;;
50443;SDS011;36370;52.216;21.142;2022-07-23T09:41:33;11.18;;;5.90;;
50443;SDS011;36370;52.216;21.142;2022-07-23T09:45:40;18.33;;;6.72;;
50443;SDS011;36370;52.216;21.142;2022-07-23T09:54:08;7.90;;;6.38;;
50443;SDS011;36370;52.216;21.142;2022-07-23T09:58:24;9.32;;;7.00;;
50443;SDS011;36370;52.216;21.142;2022-07-23T10:02:31;13.18;;;6.88;;
50443;SDS011;36370;52.216;21.142;2022-07-23T10:07:01;7.55;;;6.75;;
50443;SDS011;36370;52.216;21.142;2022-07-23T10:11:25;7.45;;;6.63;;
50443;SDS011;36370;52.216;21.142;2022-07-23T10:15:42;6.93;;;5.85;;
50443;SDS011;36370;52.216;21.142;2022-07-23T10:19:44;8.98;;;6.38;;
50443;SDS011;36370;52.216;21.142;2022-07-23T10:23:51;9.95;;;6.60;;
50443;SDS011;36370;52.216;21.142;2022-07-23T10:28:11;9.07;;;6.03;;
50443;SDS011;36370;52.216;21.142;2022-07-23T10:32:25;8.80;;;6.68;;
50443;SDS011;36370;52.216;21.142;2022-07-23T10:36:40;9.65;;;7.07;;
50443;SDS011;36370;52.216;21.142;2022-07-23T10:40:56;12.93;;;6.93;;
50443;SDS011;36370;52.216;21.142;2022-07-23T10:45:21;12.15;;;6.53;;
50443;SDS011;36370;52.216;21.142;2022-07-23T10:49:31;10.00;;;6.13;;
50443;SDS011;36370;52.216;21.142;2022-07-23T10:57:55;6.28;;;5.68;;
50443;SDS011;36370;52.216;21.142;2022-07-23T11:02:20;6.15;;;5.55;;
50443;SDS011;36370;52.216;21.142;2022-07-23T11:06:46;9.60;;;6.18;;
50443;SDS011;36370;52.216;21.142;2022-07-23T11:10:51;9.48;;;6.45;;
50443;SDS011;36370;52.216;21.142;2022-07-23T11:19:16;8.57;;;6.38;;
50443;SDS011;36370;52.216;21.142;2022-07-23T11:23:19;8.02;;;5.78;;
50443;SDS011;36370;52.216;21.142;2022-07-23T11:27:35;9.45;;;6.07;;
50443;SDS011;36370;52.216;21.142;2022-07-23T11:31:55;11.70;;;6.20;;
50443;SDS011;36370;52.216;21.142;2022-07-23T11:36:01;8.15;;;6.15;;
50443;SDS011;36370;52.216;21.142;2022-07-23T11:48:30;6.25;;;5.65;;
50443;SDS011;36370;52.216;21.142;2022-07-23T11:52:38;7.82;;;5.97;;
50443;SDS011;36370;52.216;21.142;2022-07-23T11:56:54;7.72;;;6.40;;
50443;SDS011;36370;52.216;21.142;2022-07-23T12:00:58;10.35;;;5.90;;
50443;SDS011;36370;52.216;21.142;2022-07-23T12:05:00;11.38;;;6.78;;
50443;SDS011;36370;52.216;21.142;2022-07-23T12:09:02;10.13;;;6.93;;
50443;SDS011;36370;52.216;21.142;2022-07-23T12:13:05;9.70;;;6.55;;
50443;SDS011;36370;52.216;21.142;2022-07-23T12:17:29;16.90;;;7.28;;
50443;SDS011;36370;52.216;21.142;2022-07-23T12:21:33;9.50;;;7.03;;
50443;SDS011;36370;52.216;21.142;2022-07-23T12:25:37;10.65;;;7.00;;
50443;SDS011;36370;52.216;21.142;2022-07-23T12:29:40;9.32;;;6.35;;
50443;SDS011;36370;52.216;21.142;2022-07-23T12:33:43;11.27;;;6.72;;
50443;SDS011;36370;52.216;21.142;2022-07-23T12:37:45;15.07;;;7.03;;
50443;SDS011;36370;52.216;21.142;2022-07-23T12:41:52;8.73;;;6.10;;
50443;SDS011;36370;52.216;21.142;2022-07-23T12:45:56;9.73;;;6.07;;
50443;SDS011;36370;52.216;21.142;2022-07-23T12:50:39;10.80;;;6.47;;
50443;SDS011;36370;52.216;21.142;2022-07-23T12:54:42;7.13;;;5.70;;
50443;SDS011;36370;52.216;21.142;2022-07-23T12:58:45;8.80;;;6.20;;
50443;SDS011;36370;52.216;21.142;2022-07-23T13:02:54;8.13;;;6.32;;
50443;SDS011;36370;52.216;21.142;2022-07-23T13:06:57;11.93;;;7.00;;
50443;SDS011;36370;52.216;21.142;2022-07-23T13:11:22;8.93;;;5.63;;
50443;SDS011;36370;52.216;21.142;2022-07-23T13:15:25;8.60;;;6.63;;
50443;SDS011;36370;52.216;21.142;2022-07-23T13:19:27;10.75;;;7.10;;
50443;SDS011;36370;52.216;21.142;2022-07-23T13:23:29;10.02;;;6.43;;
50443;SDS011;36370;52.216;21.142;2022-07-23T13:27:32;9.52;;;6.53;;
50443;SDS011;36370;52.216;21.142;2022-07-23T13:31:41;11.10;;;6.32;;
50443;SDS011;36370;52.216;21.142;2022-07-23T13:35:44;6.82;;;5.75;;
50443;SDS011;36370;52.216;21.142;2022-07-23T13:39:47;9.00;;;6.88;;
50443;SDS011;36370;52.216;21.142;2022-07-23T13:43:49;9.60;;;6.28;;
50443;SDS011;36370;52.216;21.142;2022-07-23T13:47:52;7.75;;;6.22;;
50443;SDS011;36370;52.216;21.142;2022-07-23T13:52:15;8.55;;;7.03;;
50443;SDS011;36370;52.216;21.142;2022-07-23T13:56:17;7.10;;;6.03;;
50443;SDS011;36370;52.216;21.142;2022-07-23T14:00:23;7.95;;;6.25;;
50443;SDS011;36370;52.216;21.142;2022-07-23T14:04:54;9.07;;;5.65;;
50443;SDS011;36370;52.216;21.142;2022-07-23T14:08:56;9.65;;;6.53;;
50443;SDS011;36370;52.216;21.142;2022-07-23T14:12:58;12.48;;;6.68;;
50443;SDS011;36370;52.216;21.142;2022-07-23T14:17:01;10.55;;;6.80;;
50443;SDS011;36370;52.216;21.142;2022-07-23T14:21:04;9.48;;;6.63;;
50443;SDS011;36370;52.216;21.142;2022-07-23T14:25:08;8.10;;;6.72;;
50443;SDS011;36370;52.216;21.142;2022-07-23T14:29:13;9.40;;;6.90;;
50443;SDS011;36370;52.216;21.142;2022-07-23T14:33:16;7.28;;;6.38;;
50443;SDS011;36370;52.216;21.142;2022-07-23T14:37:18;9.93;;;7.40;;
50443;SDS011;36370;52.216;21.142;2022-07-23T14:41:20;10.35;;;6.65;;
50443;SDS011;36370;52.216;21.142;2022-07-23T14:45:28;8.27;;;6.20;;
50443;SDS011;36370;52.216;21.142;2022-07-23T14:49:32;11.73;;;7.22;;
50443;SDS011;36370;52.216;21.142;2022-07-23T14:53:34;10.55;;;7.82;;
50443;SDS011;36370;52.216;21.142;2022-07-23T14:57:36;61.35;;;9.10;;
50443;SDS011;36370;52.216;21.142;2022-07-23T15:01:39;47.97;;;8.90;;
50443;SDS011;36370;52.216;21.142;2022-07-23T15:05:42;20.65;;;6.03;;
50443;SDS011;36370;52.216;21.142;2022-07-23T15:09:44;29.25;;;6.25;;
50443;SDS011;36370;52.216;21.142;2022-07-23T15:13:49;14.57;;;6.45;;
50443;SDS011;36370;52.216;21.142;2022-07-23T15:17:51;11.75;;;6.93;;
50443;SDS011;36370;52.216;21.142;2022-07-23T15:21:55;14.32;;;7.63;;
50443;SDS011;36370;52.216;21.142;2022-07-23T15:25:58;14.57;;;9.13;;
50443;SDS011;36370;52.216;21.142;2022-07-23T15:30:00;14.10;;;9.30;;
50443;SDS011;36370;52.216;21.142;2022-07-23T15:34:02;13.07;;;9.60;;
50443;SDS011;36370;52.216;21.142;2022-07-23T15:38:08;15.38;;;9.77;;
50443;SDS011;36370;52.216;21.142;2022-07-23T15:42:14;15.73;;;10.75;;
50443;SDS011;36370;52.216;21.142;2022-07-23T15:46:17;12.90;;;9.68;;
50443;SDS011;36370;52.216;21.142;2022-07-23T15:50:28;17.67;;;11.02;;
50443;SDS011;36370;52.216;21.142;2022-07-23T15:54:32;16.90;;;11.73;;
50443;SDS011;36370;52.216;21.142;2022-07-23T15:58:36;20.48;;;13.05;;
50443;SDS011;36370;52.216;21.142;2022-07-23T16:02:40;21.58;;;13.00;;
50443;SDS011;36370;52.216;21.142;2022-07-23T16:06:42;10.70;;;9.43;;
50443;SDS011;36370;52.216;21.142;2022-07-23T16:10:45;9.38;;;8.05;;
50443;SDS011;36370;52.216;21.142;2022-07-23T16:14:48;11.65;;;7.65;;
50443;SDS011;36370;52.216;21.142;2022-07-23T16:18:50;8.88;;;7.35;;
50443;SDS011;36370;52.216;21.142;2022-07-23T16:22:52;13.75;;;8.40;;
50443;SDS011;36370;52.216;21.142;2022-07-23T16:26:55;11.60;;;7.82;;
50443;SDS011;36370;52.216;21.142;2022-07-23T16:30:57;14.18;;;9.55;;
50443;SDS011;36370;52.216;21.142;2022-07-23T16:35:00;10.52;;;8.32;;
50443;SDS011;36370;52.216;21.142;2022-07-23T16:39:13;9.98;;;7.78;;
50443;SDS011;36370;52.216;21.142;2022-07-23T16:43:16;11.65;;;7.95;;
50443;SDS011;36370;52.216;21.142;2022-07-23T16:47:18;9.70;;;7.43;;
50443;SDS011;36370;52.216;21.142;2022-07-23T16:51:21;7.28;;;6.47;;
50443;SDS011;36370;52.216;21.142;2022-07-23T16:55:23;7.13;;;6.30;;
50443;SDS011;36370;52.216;21.142;2022-07-23T16:59:26;7.88;;;6.78;;
50443;SDS011;36370;52.216;21.142;2022-07-23T17:03:28;12.88;;;8.25;;
50443;SDS011;36370;52.216;21.142;2022-07-23T17:07:31;7.47;;;6.55;;
50443;SDS011;36370;52.216;21.142;2022-07-23T17:11:34;9.15;;;7.03;;
50443;SDS011;36370;52.216;21.142;2022-07-23T17:15:37;8.60;;;7.25;;
50443;SDS011;36370;52.216;21.142;2022-07-23T17:19:39;11.18;;;7.40;;
50443;SDS011;36370;52.216;21.142;2022-07-23T17:23:41;10.68;;;7.43;;
50443;SDS011;36370;52.216;21.142;2022-07-23T17:27:43;16.80;;;13.65;;
50443;SDS011;36370;52.216;21.142;2022-07-23T17:31:48;13.25;;;11.23;;
50443;SDS011;36370;52.216;21.142;2022-07-23T17:35:50;7.28;;;6.57;;
50443;SDS011;36370;52.216;21.142;2022-07-23T17:39:54;10.50;;;8.05;;
50443;SDS011;36370;52.216;21.142;2022-07-23T17:43:56;9.13;;;7.53;;
50443;SDS011;36370;52.216;21.142;2022-07-23T17:48:00;12.55;;;8.02;;
50443;SDS011;36370;52.216;21.142;2022-07-23T17:52:03;11.07;;;8.13;;
50443;SDS011;36370;52.216;21.142;2022-07-23T17:56:06;9.77;;;7.90;;
50443;SDS011;36370;52.216;21.142;2022-07-23T18:00:09;8.23;;;7.30;;
50443;SDS011;36370;52.216;21.142;2022-07-23T18:04:14;11.20;;;8.45;;
50443;SDS011;36370;52.216;21.142;2022-07-23T18:08:16;9.98;;;8.05;;
50443;SDS011;36370;52.216;21.142;2022-07-23T18:12:19;11.63;;;8.50;;
50443;SDS011;36370;52.216;21.142;2022-07-23T18:16:21;9.13;;;8.23;;
50443;SDS011;36370;52.216;21.142;2022-07-23T18:20:23;17.40;;;11.55;;
50443;SDS011;36370;52.216;21.142;2022-07-23T18:24:26;13.88;;;10.63;;
50443;SDS011;36370;52.216;21.142;2022-07-23T18:28:28;12.15;;;9.73;;
50443;SDS011;36370;52.216;21.142;2022-07-23T18:32:31;9.70;;;8.70;;
50443;SDS011;36370;52.216;21.142;2022-07-23T18:37:02;9.82;;;7.82;;
50443;SDS011;36370;52.216;21.142;2022-07-23T18:41:06;14.75;;;10.98;;
50443;SDS011;36370;52.216;21.142;2022-07-23T18:45:09;10.30;;;8.48;;
50443;SDS011;36370;52.216;21.142;2022-07-23T18:49:12;11.73;;;10.05;;
50443;SDS011;36370;52.216;21.142;2022-07-23T18:53:14;14.43;;;10.48;;
50443;SDS011;36370;52.216;21.142;2022-07-23T18:57:16;13.73;;;11.65;;
50443;SDS011;36370;52.216;21.142;2022-07-23T19:01:20;17.67;;;13.27;;
50443;SDS011;36370;52.216;21.142;2022-07-23T19:05:22;15.18;;;11.77;;
50443;SDS011;36370;52.216;21.142;2022-07-23T19:09:24;19.35;;;15.52;;
50443;SDS011;36370;52.216;21.142;2022-07-23T19:13:34;12.13;;;9.18;;
50443;SDS011;36370;52.216;21.142;2022-07-23T19:17:37;15.43;;;11.50;;
50443;SDS011;36370;52.216;21.142;2022-07-23T19:21:39;13.57;;;11.93;;
50443;SDS011;36370;52.216;21.142;2022-07-23T19:25:41;17.52;;;13.95;;
50443;SDS011;36370;52.216;21.142;2022-07-23T19:29:43;14.13;;;11.98;;
50443;SDS011;36370;52.216;21.142;2022-07-23T19:33:46;19.33;;;14.30;;
50443;SDS011;36370;52.216;21.142;2022-07-23T19:37:49;18.63;;;16.73;;
50443;SDS011;36370;52.216;21.142;2022-07-23T19:41:51;13.68;;;12.23;;
50443;SDS011;36370;52.216;21.142;2022-07-23T19:45:54;16.70;;;13.95;;
50443;SDS011;36370;52.216;21.142;2022-07-23T19:49:58;16.23;;;12.20;;
50443;SDS011;36370;52.216;21.142;2022-07-23T19:54:01;17.48;;;13.40;;
50443;SDS011;36370;52.216;21.142;2022-07-23T19:58:04;11.88;;;10.68;;
50443;SDS011;36370;52.216;21.142;2022-07-23T20:02:06;17.80;;;15.90;;
50443;SDS011;36370;52.216;21.142;2022-07-23T20:06:09;15.23;;;12.90;;
50443;SDS011;36370;52.216;21.142;2022-07-23T20:10:11;12.40;;;11.10;;
50443;SDS011;36370;52.216;21.142;2022-07-23T20:14:14;15.80;;;13.52;;
50443;SDS011;36370;52.216;21.142;2022-07-23T20:18:16;25.70;;;19.83;;
50443;SDS011;36370;52.216;21.142;2022-07-23T20:22:20;23.27;;;18.52;;
50443;SDS011;36370;52.216;21.142;2022-07-23T20:26:23;20.80;;;16.55;;
50443;SDS011;36370;52.216;21.142;2022-07-23T20:30:30;17.00;;;15.20;;
50443;SDS011;36370;52.216;21.142;2022-07-23T20:34:50;20.85;;;18.15;;
50443;SDS011;36370;52.216;21.142;2022-07-23T20:38:55;21.80;;;18.42;;
50443;SDS011;36370;52.216;21.142;2022-07-23T20:42:57;26.55;;;20.65;;
50443;SDS011;36370;52.216;21.142;2022-07-23T20:46:59;27.80;;;20.27;;
50443;SDS011;36370;52.216;21.142;2022-07-23T20:51:01;27.67;;;21.33;;
50443;SDS011;36370;52.216;21.142;2022-07-23T20:55:04;23.73;;;18.73;;
50443;SDS011;36370;52.216;21.142;2022-07-23T20:59:07;25.30;;;18.75;;
50443;SDS011;36370;52.216;21.142;2022-07-23T21:03:10;23.35;;;20.20;;
50443;SDS011;36370;52.216;21.142;2022-07-23T21:07:14;19.10;;;16.02;;
50443;SDS011;36370;52.216;21.142;2022-07-23T21:11:20;26.30;;;17.67;;
50443;SDS011;36370;52.216;21.142;2022-07-23T21:15:22;24.13;;;18.67;;
50443;SDS011;36370;52.216;21.142;2022-07-23T21:19:27;23.40;;;17.13;;
50443;SDS011;36370;52.216;21.142;2022-07-23T21:23:29;22.02;;;16.52;;
50443;SDS011;36370;52.216;21.142;2022-07-23T21:27:38;18.58;;;15.75;;
50443;SDS011;36370;52.216;21.142;2022-07-23T21:31:41;23.63;;;19.02;;
50443;SDS011;36370;52.216;21.142;2022-07-23T21:35:43;20.73;;;17.27;;
50443;SDS011;36370;52.216;21.142;2022-07-23T21:39:45;21.02;;;17.33;;
50443;SDS011;36370;52.216;21.142;2022-07-23T21:43:48;17.38;;;14.02;;
50443;SDS011;36370;52.216;21.142;2022-07-23T21:47:50;23.20;;;18.10;;
50443;SDS011;36370;52.216;21.142;2022-07-23T21:51:52;17.45;;;14.27;;
50443;SDS011;36370;52.216;21.142;2022-07-23T21:55:55;18.30;;;14.15;;
50443;SDS011;36370;52.216;21.142;2022-07-23T21:59:57;18.17;;;15.77;;
50443;SDS011;36370;52.216;21.142;2022-07-23T22:03:59;23.77;;;16.48;;
50443;SDS011;36370;52.216;21.142;2022-07-23T22:08:02;26.10;;;20.23;;
50443;SDS011;36370;52.216;21.142;2022-07-23T22:12:05;24.73;;;19.25;;
50443;SDS011;36370;52.216;21.142;2022-07-23T22:16:08;24.80;;;19.27;;
50443;SDS011;36370;52.216;21.142;2022-07-23T22:20:10;27.70;;;20.92;;
50443;SDS011;36370;52.216;21.142;2022-07-23T22:24:14;21.67;;;18.25;;
50443;SDS011;36370;52.216;21.142;2022-07-23T22:28:17;25.77;;;20.77;;
50443;SDS011;36370;52.216;21.142;2022-07-23T22:32:20;22.25;;;18.33;;
50443;SDS011;36370;52.216;21.142;2022-07-23T22:36:25;26.90;;;20.75;;
50443;SDS011;36370;52.216;21.142;2022-07-23T22:40:28;19.13;;;16.80;;
50443;SDS011;36370;52.216;21.142;2022-07-23T22:44:30;22.08;;;16.85;;
50443;SDS011;36370;52.216;21.142;2022-07-23T22:48:32;19.73;;;17.35;;
50443;SDS011;36370;52.216;21.142;2022-07-23T22:52:35;24.75;;;21.10;;
50443;SDS011;36370;52.216;21.142;2022-07-23T22:56:38;22.17;;;18.02;;
50443;SDS011;36370;52.216;21.142;2022-07-23T23:00:40;23.88;;;21.30;;
50443;SDS011;36370;52.216;21.142;2022-07-23T23:04:42;18.88;;;16.58;;
50443;SDS011;36370;52.216;21.142;2022-07-23T23:08:45;20.92;;;16.20;;
50443;SDS011;36370;52.216;21.142;2022-07-23T23:12:47;21.33;;;19.08;;
50443;SDS011;36370;52.216;21.142;2022-07-23T23:16:49;29.50;;;22.88;;
50443;SDS011;36370;52.216;21.142;2022-07-23T23:20:52;19.65;;;16.23;;
50443;SDS011;36370;52.216;21.142;2022-07-23T23:24:54;21.98;;;18.80;;
50443;SDS011;36370;52.216;21.142;2022-07-23T23:28:56;33.30;;;26.23;;
50443;SDS011;36370;52.216;21.142;2022-07-23T23:32:58;26.00;;;23.05;;
50443;SDS011;36370;52.216;21.142;2022-07-23T23:37:01;27.02;;;23.63;;
50443;SDS011;36370;52.216;21.142;2022-07-23T23:41:03;28.25;;;23.35;;
50443;SDS011;36370;52.216;21.142;2022-07-23T23:45:06;26.67;;;23.27;;
50443;SDS011;36370;52.216;21.142;2022-07-23T23:49:10;26.55;;;21.42;;
50443;SDS011;36370;52.216;21.142;2022-07-23T23:53:12;25.45;;;22.35;;
50443;SDS011;36370;52.216;21.142;2022-07-23T23:57:14;29.80;;;22.70;;
